Portada
METAR-TAF:

METAR-TAF

Aeropuertos :

Aeropuerto Internacional de Marsa Alam

Marsa Alam, Egipto

latitud: 25-33-25N, longitud: 34-35-01E, altitud: 77 m

Observación

El informe se hizo hace 1 hora y 35 minutos, a las 20:00 UTC
Viento 11 kt del oeste-noroeste
Temperatura 18°C
Humedad 49%
Presión 1016 hPa
Visibilidad 10 km o más
sin nubes por debajo de 1500 m y sin presencia de cumulonimbus.

METAR: HEMA 032000Z 30011KT CAVOK 18/07 Q1016 NOSIG

Hora: 23:35 (21:35 UTC)

Pronóstico

El informe se hizo hace 4 horas y 35 minutos, a las 17:00 UTC
Pronóstico válido del 03 a las 18 UTC al 04 a las 24 UTC
Viento 18 kt del norte con ráfagas de 28 kt
Visibilidad: 6000 m
Temporalmente
del 03 a las 18 UTC al 03 a las 22 UTC
Visibilidad: 4000 m
arena

TAF: HEMA 031700Z 0318/0424 36018G28KT 6000 NSC TEMPO 0318/0322 4000 SA

Observaciones y pronósticos meteorológicos de más de 4000 aeropuertos (mensajes METAR y TAF).

Los puntos amarillos y rojos representan las estaciones disponibles.

Ponga el ratón en el punto deseado para ver el nombre de la estación.

Haga clic para ver las observaciones y los pronósticos meteorológicos.

Para cambiar el mapa : haga clic en los botones verdes con una cruz de color negro para hacer un zoom, en el botón verde con un guión para alejar o en las flechas verdes para mapas adyacentes.


METAR-TAF: